createdAt,value
2018-09-01T00:00:34.634Z,98945.74
2018-09-01T00:02:46.856Z,98949.14
2018-09-01T00:04:59.087Z,98934.59
2018-09-01T00:07:11.340Z,98936.63
2018-09-01T00:09:23.503Z,98937.84
2018-09-01T00:11:35.722Z,98931.55
2018-09-01T00:13:47.938Z,98936.06
2018-09-01T00:16:00.144Z,98927.27
2018-09-01T00:18:12.374Z,98929.36
2018-09-01T00:20:24.608Z,98927.11
2018-09-01T00:22:36.815Z,98918.32
2018-09-01T00:24:49.078Z,98919.63
2018-09-01T00:27:01.269Z,98915.90
2018-09-01T00:29:13.462Z,98918.70
2018-09-01T00:31:25.672Z,98923.49
2018-09-01T00:33:37.874Z,98926.47
2018-09-01T00:35:50.106Z,98917.20
2018-09-01T00:38:07.850Z,98914.76
2018-09-01T00:40:24.662Z,98913.84
2018-09-01T00:42:36.873Z,98908.98
2018-09-01T00:44:49.059Z,98911.31
2018-09-01T00:47:01.317Z,98912.26
2018-09-01T00:49:13.506Z,98908.62
2018-09-01T00:51:25.709Z,98911.95
2018-09-01T00:53:37.894Z,98913.38
2018-09-01T00:55:50.115Z,98912.90
2018-09-01T00:58:02.776Z,98913.73
2018-09-01T01:00:14.986Z,98918.87
2018-09-01T01:02:27.180Z,98915.40
2018-09-01T01:04:39.709Z,98918.95
2018-09-01T01:06:51.938Z,98921.02
2018-09-01T01:09:05.243Z,98927.44
2018-09-01T01:11:17.591Z,98932.78
2018-09-01T01:13:29.789Z,98934.17
2018-09-01T01:15:42.021Z,98937.38
2018-09-01T01:17:54.235Z,98941.84
2018-09-01T01:20:06.678Z,98947.08
2018-09-01T01:22:18.928Z,98950.08
2018-09-01T01:24:31.119Z,98949.16
2018-09-01T01:26:43.300Z,98950.00
2018-09-01T01:28:55.503Z,98947.69
2018-09-01T01:31:07.758Z,98948.52
2018-09-01T01:33:19.970Z,98945.44
2018-09-01T01:35:32.154Z,98948.99
2018-09-01T01:37:44.358Z,98941.34
2018-09-01T01:39:56.579Z,98942.66
2018-09-01T01:42:08.927Z,98943.77
2018-09-01T01:44:21.115Z,98945.60
2018-09-01T01:46:33.314Z,98943.94
2018-09-01T01:48:46.054Z,98940.09
2018-09-01T01:50:58.227Z,98945.32
2018-09-01T01:53:10.395Z,98940.02
2018-09-01T01:55:22.578Z,98941.87
2018-09-01T01:57:40.277Z,98952.69
2018-09-01T01:59:52.526Z,98952.05
2018-09-01T02:02:04.772Z,98957.30
2018-09-01T02:04:16.974Z,98956.10
2018-09-01T02:06:29.159Z,98952.29
2018-09-01T02:08:41.331Z,98950.70
2018-09-01T02:10:53.547Z,98955.45
2018-09-01T02:13:05.739Z,98952.20
2018-09-01T02:15:17.922Z,98949.11
2018-09-01T02:17:30.182Z,98953.39
2018-09-01T02:19:42.410Z,98957.78
2018-09-01T02:21:54.696Z,98959.09
2018-09-01T02:24:06.974Z,98953.03
2018-09-01T02:26:19.180Z,98957.98
2018-09-01T02:28:31.439Z,98954.72
2018-09-01T02:30:43.635Z,98947.73
2018-09-01T02:32:55.839Z,98942.05
2018-09-01T02:35:08.046Z,98941.29
2018-09-01T02:37:20.224Z,98948.77
2018-09-01T02:39:32.378Z,98956.14
2018-09-01T02:41:44.606Z,98956.98
2018-09-01T02:43:56.770Z,98958.00
2018-09-01T02:46:09.167Z,98954.91
2018-09-01T02:48:21.350Z,98958.40
2018-09-01T02:50:33.516Z,98961.09
2018-09-01T02:52:45.731Z,98959.31
2018-09-01T02:54:57.953Z,98965.11
2018-09-01T02:57:10.140Z,98960.80
2018-09-01T02:59:22.293Z,98961.85
2018-09-01T03:01:36.648Z,98961.02
2018-09-01T03:03:48.859Z,98964.28
2018-09-01T03:06:01.043Z,98960.80
2018-09-01T03:08:13.253Z,98964.17
2018-09-01T03:10:25.451Z,98956.52
2018-09-01T03:12:37.703Z,98953.26
2018-09-01T03:14:49.885Z,98954.85
2018-09-01T03:17:02.056Z,98951.30
2018-09-01T03:19:14.297Z,98951.88
2018-09-01T03:21:26.494Z,98954.02
2018-09-01T03:23:38.695Z,98961.55
2018-09-01T03:25:50.859Z,98957.17
2018-09-01T03:28:03.042Z,98960.80
2018-09-01T03:30:15.236Z,98959.89
2018-09-01T03:32:27.428Z,98958.39
2018-09-01T03:34:39.577Z,98952.96
2018-09-01T03:36:51.778Z,98958.39
2018-09-01T03:39:06.513Z,98961.73
2018-09-01T03:41:18.687Z,98957.74
2018-09-01T03:43:30.886Z,98955.78
2018-09-01T03:45:43.091Z,98960.25
2018-09-01T03:47:55.370Z,98959.13
2018-09-01T03:50:07.571Z,98960.43
2018-09-01T03:52:19.782Z,98960.14
2018-09-01T03:54:31.947Z,98958.39
2018-09-01T03:56:44.145Z,98966.88
2018-09-01T03:58:56.406Z,98968.83
2018-09-01T04:01:08.669Z,98969.47
2018-09-01T04:03:20.851Z,98967.95
2018-09-01T04:05:33.043Z,98960.70
2018-09-01T04:07:45.266Z,98965.45
2018-09-01T04:09:57.552Z,98964.69
2018-09-01T04:12:09.715Z,98962.72
2018-09-01T04:14:21.932Z,98971.37
2018-09-01T04:16:34.127Z,98969.80
2018-09-01T04:18:46.319Z,98968.97
2018-09-01T04:20:58.515Z,98968.39
2018-09-01T04:23:10.714Z,98962.05
2018-09-01T04:25:22.948Z,98969.14
2018-09-01T04:27:35.147Z,98970.45
2018-09-01T04:29:47.340Z,98963.09
2018-09-01T04:31:59.564Z,98967.91
2018-09-01T04:34:11.709Z,98971.28
2018-09-01T04:36:23.927Z,98980.30
2018-09-01T04:38:36.108Z,98974.36
2018-09-01T04:40:48.406Z,98977.50
2018-09-01T04:43:00.573Z,98973.10
2018-09-01T04:45:12.775Z,98980.66
2018-09-01T04:47:24.971Z,98974.39
2018-09-01T04:49:37.196Z,98975.86
2018-09-01T04:51:49.408Z,98977.63
2018-09-01T04:54:01.571Z,98979.70
2018-09-01T04:56:13.850Z,98973.38
2018-09-01T04:58:26.011Z,98973.58
2018-09-01T05:00:38.221Z,98981.03
2018-09-01T05:02:52.033Z,98982.82
2018-09-01T05:05:04.296Z,98991.02
2018-09-01T05:07:16.486Z,98988.58
2018-09-01T05:09:28.764Z,98988.58
2018-09-01T05:11:41.003Z,98985.61
2018-09-01T05:13:53.270Z,98988.30
2018-09-01T05:16:05.561Z,98992.34
2018-09-01T05:18:17.791Z,98994.84
2018-09-01T05:20:30.007Z,99002.97
2018-09-01T05:22:42.258Z,98998.05
2018-09-01T05:24:54.583Z,98994.03
2018-09-01T05:27:06.844Z,99003.55
2018-09-01T05:29:19.015Z,99000.48
2018-09-01T05:31:31.211Z,98997.13
2018-09-01T05:33:43.458Z,98995.64
2018-09-01T05:35:55.667Z,98995.76
2018-09-01T05:38:07.966Z,98989.78
2018-09-01T05:40:20.187Z,98993.52
2018-09-01T05:42:32.411Z,98993.81
2018-09-01T05:44:44.612Z,98996.03
2018-09-01T05:46:56.816Z,98996.50
2018-09-01T05:49:09.022Z,98998.46
2018-09-01T05:51:21.223Z,99000.06
2018-09-01T05:53:33.427Z,99002.02
2018-09-01T05:55:45.606Z,99005.94
2018-09-01T05:57:57.819Z,99010.79
2018-09-01T06:00:10.085Z,99018.98
2018-09-01T06:02:22.432Z,99021.12
2018-09-01T06:04:34.653Z,99024.97
2018-09-01T06:06:46.922Z,99020.67
2018-09-01T06:08:59.098Z,99016.86
2018-09-01T06:11:11.287Z,99013.50
2018-09-01T06:13:23.503Z,99009.87
2018-09-01T06:15:35.693Z,99010.41
2018-09-01T06:17:48.051Z,99006.71
2018-09-01T06:20:00.149Z,99004.28
2018-09-01T06:22:12.333Z,99013.23
2018-09-01T06:24:24.584Z,99013.02
2018-09-01T06:26:36.807Z,99013.59
2018-09-01T06:28:52.943Z,99013.89
2018-09-01T06:31:05.575Z,99017.52
2018-09-01T06:33:17.860Z,99014.17
2018-09-01T06:35:30.118Z,99013.70
2018-09-01T06:37:42.368Z,99010.53
2018-09-01T06:39:54.536Z,99009.87
2018-09-01T06:42:06.750Z,99013.78
2018-09-01T06:44:18.971Z,99008.27
2018-09-01T06:46:31.193Z,99006.50
2018-09-01T06:48:43.417Z,99004.53
2018-09-01T06:50:55.672Z,99008.98
2018-09-01T06:53:07.931Z,99013.19
2018-09-01T06:55:20.102Z,99020.84
2018-09-01T06:57:32.310Z,99022.85
2018-09-01T06:59:44.543Z,99022.94
2018-09-01T07:01:56.783Z,99021.63
2018-09-01T07:04:09.021Z,99027.51
2018-09-01T07:06:21.286Z,99034.02
2018-09-01T07:08:33.584Z,99034.36
2018-09-01T07:10:45.779Z,99039.09
2018-09-01T07:12:58.019Z,99046.08
2018-09-01T07:15:10.256Z,99051.39
2018-09-01T07:17:22.462Z,99052.39
2018-09-01T07:19:34.673Z,99049.38
2018-09-01T07:21:46.883Z,99054.39
2018-09-01T07:23:59.076Z,99054.86
2018-09-01T07:26:11.321Z,99055.45
2018-09-01T07:28:23.544Z,99052.88
2018-09-01T07:30:35.948Z,99058.70
2018-09-01T07:32:47.948Z,99060.47
2018-09-01T07:35:00.251Z,99066.05
2018-09-01T07:37:12.714Z,99063.89
2018-09-01T07:39:24.955Z,99069.08
2018-09-01T07:41:37.192Z,99066.99
2018-09-01T07:43:49.415Z,99066.94
2018-09-01T07:46:01.654Z,99069.85
2018-09-01T07:48:13.846Z,99069.19
2018-09-01T07:50:26.100Z,99064.85
2018-09-01T07:52:38.297Z,99062.27
2018-09-01T07:54:50.499Z,99063.30
2018-09-01T07:57:03.072Z,99069.73
2018-09-01T07:59:15.301Z,99069.39
2018-09-01T08:01:27.542Z,99067.38
2018-09-01T08:03:39.735Z,99071.58
2018-09-01T08:05:51.935Z,99075.97
2018-09-01T08:08:04.131Z,99075.81
2018-09-01T08:10:16.317Z,99069.55
2018-09-01T08:12:28.747Z,99071.39
2018-09-01T08:14:41.031Z,99071.19
2018-09-01T08:16:53.146Z,99073.55
2018-09-01T08:19:05.867Z,99073.23
2018-09-01T08:21:18.050Z,99073.73
2018-09-01T08:23:30.246Z,99076.09
2018-09-01T08:25:42.527Z,99071.87
2018-09-01T08:27:54.786Z,99070.56
2018-09-01T08:30:07.055Z,99077.33
2018-09-01T08:32:19.266Z,99072.11
2018-09-01T08:34:31.518Z,99067.95
2018-09-01T08:36:43.830Z,99066.59
2018-09-01T08:38:56.016Z,99069.32
2018-09-01T08:41:08.227Z,99077.58
2018-09-01T08:43:20.475Z,99079.23
2018-09-01T08:45:32.697Z,99090.42
2018-09-01T08:47:44.987Z,99096.88
2018-09-01T08:49:57.187Z,99102.94
2018-09-01T08:52:09.382Z,99102.48
2018-09-01T08:54:21.662Z,99106.53
2018-09-01T08:56:33.844Z,99104.93
2018-09-01T08:58:46.066Z,99110.28
2018-09-01T09:00:58.324Z,99115.23
2018-09-01T09:03:10.572Z,99112.73
2018-09-01T09:05:22.803Z,99113.19
2018-09-01T09:07:35.026Z,99115.48
2018-09-01T09:09:47.379Z,99117.55
2018-09-01T09:11:59.602Z,99119.81
2018-09-01T09:14:11.817Z,99119.81
2018-09-01T09:16:24.051Z,99126.41
2018-09-01T09:18:36.301Z,99123.28
2018-09-01T09:20:48.587Z,99114.91
2018-09-01T09:23:00.808Z,99112.70
2018-09-01T09:25:13.091Z,99111.98
2018-09-01T09:27:25.291Z,99111.06
2018-09-01T09:29:37.591Z,99102.90
2018-09-01T09:31:49.867Z,99100.70
2018-09-01T09:34:02.106Z,99098.12
2018-09-01T09:36:14.413Z,99093.41
2018-09-01T09:38:26.607Z,99089.61
2018-09-01T09:40:38.852Z,99085.00
2018-09-01T09:42:51.044Z,99079.17
2018-09-01T09:45:03.354Z,99077.50
2018-09-01T09:47:15.592Z,99080.69
2018-09-01T09:49:27.833Z,99076.88
2018-09-01T09:51:40.086Z,99081.38
2018-09-01T09:53:52.308Z,99081.12
2018-09-01T09:56:04.679Z,99082.41
2018-09-01T09:58:17.028Z,99075.89
2018-09-01T10:00:35.037Z,99075.80
2018-09-01T10:02:47.326Z,99064.02
2018-09-01T10:04:59.566Z,99073.58
2018-09-01T10:07:11.822Z,99073.95
2018-09-01T10:09:24.022Z,99073.75
2018-09-01T10:11:36.243Z,99078.23
2018-09-01T10:13:48.455Z,99060.04
2018-09-01T10:16:00.817Z,99067.53
2018-09-01T10:18:13.039Z,99060.38
2018-09-01T10:20:25.287Z,99069.47
2018-09-01T10:22:37.441Z,99066.77
2018-09-01T10:24:49.651Z,99065.81
2018-09-01T10:27:01.928Z,99060.10
2018-09-01T10:29:14.190Z,99061.87
2018-09-01T10:31:26.365Z,99069.47
2018-09-01T10:33:38.634Z,99073.89
2018-09-01T10:35:51.097Z,99068.95
2018-09-01T10:38:03.367Z,99071.31
2018-09-01T10:40:15.582Z,99066.02
2018-09-01T10:42:27.782Z,99064.02
2018-09-01T10:44:40.021Z,99064.98
2018-09-01T10:46:52.267Z,99060.67
2018-09-01T10:49:04.918Z,99053.21
2018-09-01T10:51:17.194Z,99051.83
2018-09-01T10:53:29.399Z,99056.67
2018-09-01T10:55:41.672Z,99049.09
2018-09-01T10:57:53.880Z,99053.72
2018-09-01T11:00:06.569Z,99042.91
2018-09-01T11:02:18.813Z,99050.63
2018-09-01T11:04:31.096Z,99045.78
2018-09-01T11:06:43.287Z,99047.86
2018-09-01T11:08:55.508Z,99053.72
2018-09-01T11:11:07.714Z,99048.87
2018-09-01T11:13:19.930Z,99056.36
2018-09-01T11:15:32.240Z,99055.59
2018-09-01T11:31:53.050Z,99060.59
2018-09-01T11:34:05.280Z,99062.11
2018-09-01T11:36:17.482Z,99062.84
2018-09-01T11:38:29.719Z,99067.31
2018-09-01T11:40:41.955Z,99058.99
2018-09-01T11:42:54.360Z,99060.74
2018-09-01T11:45:06.489Z,99064.70
2018-09-01T11:47:18.740Z,99059.20
2018-09-01T11:49:30.962Z,99063.84
2018-09-01T11:51:43.190Z,99065.11
2018-09-01T11:53:55.460Z,99064.98
2018-09-01T11:56:07.713Z,99070.90
2018-09-01T11:58:19.925Z,99071.22
2018-09-01T12:00:32.167Z,99059.91
2018-09-01T12:02:44.405Z,99067.14
2018-09-01T12:04:56.660Z,99059.50
2018-09-01T12:07:08.894Z,99062.14
2018-09-01T12:09:21.128Z,99063.73
2018-09-01T12:11:33.337Z,99064.41
2018-09-01T12:13:45.588Z,99060.61
2018-09-01T12:15:57.909Z,99059.54
2018-09-01T12:18:10.144Z,99066.15
2018-09-01T12:20:22.345Z,99066.64
2018-09-01T12:22:34.720Z,99061.29
2018-09-01T12:24:46.943Z,99065.33
2018-09-01T12:26:59.172Z,99065.31
2018-09-01T12:29:11.403Z,99064.50
2018-09-01T12:31:23.686Z,99059.98
2018-09-01T12:33:35.908Z,99048.20
2018-09-01T12:35:48.143Z,99043.85
2018-09-01T12:38:00.364Z,99044.47
2018-09-01T12:40:12.563Z,99046.55
2018-09-01T12:42:24.744Z,99046.39
2018-09-01T12:44:36.983Z,99048.92
2018-09-01T12:46:49.210Z,99042.31
2018-09-01T12:49:01.442Z,99048.49
2018-09-01T12:51:13.641Z,99043.27
2018-09-01T12:53:25.940Z,99043.89
2018-09-01T12:55:38.237Z,99039.81
2018-09-01T12:57:50.424Z,99041.81
2018-09-01T13:00:02.632Z,99042.70
2018-09-01T13:02:19.360Z,99034.27
2018-09-01T13:04:31.617Z,99037.19
2018-09-01T13:06:43.905Z,99038.73
2018-09-01T13:08:56.151Z,99030.53
2018-09-01T13:11:08.397Z,99029.59
2018-09-01T13:13:20.613Z,99034.83
2018-09-01T13:15:32.868Z,99036.91
2018-09-01T13:17:45.186Z,99036.91
2018-09-01T13:19:57.424Z,99035.66
2018-09-01T13:22:09.682Z,99036.69
2018-09-01T13:24:21.923Z,99033.87
2018-09-01T13:26:34.182Z,99035.66
2018-09-01T13:28:46.418Z,99036.58
2018-09-01T13:30:58.684Z,99037.84
2018-09-01T13:33:10.951Z,99036.25
2018-09-01T13:35:23.150Z,99039.16
2018-09-01T13:37:35.394Z,99035.08
2018-09-01T13:39:47.613Z,99037.84
2018-09-01T13:41:59.848Z,99047.09
2018-09-01T13:44:12.085Z,99049.13
2018-09-01T13:46:24.336Z,99047.44
2018-09-01T13:48:36.624Z,99045.93
2018-09-01T13:50:48.886Z,99044.23
2018-09-01T13:53:01.192Z,99044.61
2018-09-01T13:55:13.440Z,99038.55
2018-09-01T13:57:25.722Z,99042.91
2018-09-01T13:59:37.926Z,99037.69
2018-09-01T14:01:50.179Z,99035.59
2018-09-01T14:04:02.475Z,99037.08
2018-09-01T14:06:14.730Z,99028.53
2018-09-01T14:08:26.999Z,99038.89
2018-09-01T14:10:39.215Z,99037.75
2018-09-01T14:12:51.438Z,99038.11
2018-09-01T14:15:04.265Z,99032.92
2018-09-01T14:17:16.691Z,99035.43
2018-09-01T14:19:28.918Z,99030.42
2018-09-01T14:21:41.207Z,99026.23
2018-09-01T14:23:53.427Z,99029.52
2018-09-01T14:26:05.694Z,99020.59
2018-09-01T14:28:17.938Z,99022.47
2018-09-01T14:30:30.214Z,99014.25
2018-09-01T14:32:42.439Z,99018.70
2018-09-01T14:34:54.671Z,99019.66
2018-09-01T14:37:07.633Z,99020.94
2018-09-01T14:39:19.853Z,99014.73
2018-09-01T14:41:32.564Z,99009.27
2018-09-01T14:43:44.898Z,99005.16
2018-09-01T14:45:57.134Z,99004.75
2018-09-01T14:48:09.397Z,99004.63
2018-09-01T14:50:21.609Z,99001.53
2018-09-01T14:52:33.836Z,99000.03
2018-09-01T14:54:46.101Z,98999.30
2018-09-01T14:56:58.468Z,99000.63
2018-09-01T14:59:11.160Z,98997.44
2018-09-01T15:01:23.434Z,98997.09
2018-09-01T15:03:35.692Z,99003.72
2018-09-01T15:05:47.953Z,98999.75
2018-09-01T15:08:00.210Z,98998.70
2018-09-01T15:10:12.493Z,99000.48
2018-09-01T15:12:24.875Z,99003.06
2018-09-01T15:14:37.207Z,99008.92
2018-09-01T15:16:49.574Z,99012.56
2018-09-01T15:19:02.463Z,99007.64
2018-09-01T15:21:14.687Z,99006.98
2018-09-01T15:23:26.919Z,99000.98
2018-09-01T15:25:39.463Z,98998.34
2018-09-01T15:27:51.686Z,98998.27
2018-09-01T15:30:03.967Z,98992.07
2018-09-01T15:32:16.198Z,98987.20
2018-09-01T15:34:28.472Z,98984.06
2018-09-01T15:36:40.697Z,98982.13
2018-09-01T15:38:52.886Z,98991.31
2018-09-01T15:41:05.169Z,98988.88
2018-09-01T15:43:17.423Z,98992.80
2018-09-01T15:45:30.289Z,98995.66
2018-09-01T15:47:42.564Z,98997.64
2018-09-01T15:49:54.796Z,98989.50
2018-09-01T15:52:06.999Z,98987.39
2018-09-01T15:54:19.264Z,98988.77
2018-09-01T15:56:31.717Z,98982.02
2018-09-01T15:58:43.948Z,98985.16
2018-09-01T16:00:56.227Z,98989.42
2018-09-01T16:03:08.555Z,98989.66
2018-09-01T16:05:20.899Z,98988.75
2018-09-01T16:07:33.143Z,99000.99
2018-09-01T16:09:45.426Z,99001.53
2018-09-01T16:11:57.792Z,99010.34
2018-09-01T16:14:10.055Z,99009.64
2018-09-01T16:16:22.278Z,99018.95
2018-09-01T16:18:34.546Z,99013.32
2018-09-01T16:20:46.773Z,99012.17
2018-09-01T16:22:59.040Z,99015.92
2018-09-01T16:25:11.311Z,99014.00
2018-09-01T16:27:23.566Z,99014.61
2018-09-01T16:29:35.885Z,99015.69
2018-09-01T16:31:48.162Z,99013.38
2018-09-01T16:34:00.427Z,99016.79
2018-09-01T16:36:12.652Z,99016.94
2018-09-01T16:38:24.892Z,99015.55
2018-09-01T16:40:37.198Z,99014.02
2018-09-01T16:42:49.452Z,99011.71
2018-09-01T16:45:01.676Z,99019.03
2018-09-01T16:47:13.888Z,99015.45
2018-09-01T16:49:26.163Z,99010.60
2018-09-01T16:51:38.375Z,99014.84
2018-09-01T16:53:50.628Z,99011.05
2018-09-01T16:56:02.935Z,99019.88
2018-09-01T16:58:15.137Z,99009.59
2018-09-01T17:00:27.602Z,99016.34
2018-09-01T17:02:39.745Z,99018.13
2018-09-01T17:04:52.050Z,99017.78
2018-09-01T17:07:04.538Z,99027.66
2018-09-01T17:09:16.796Z,99026.13
2018-09-01T17:11:29.027Z,99028.05
2018-09-01T17:13:41.274Z,99022.85
2018-09-01T17:15:53.495Z,99022.21
2018-09-01T17:18:05.783Z,99022.92
2018-09-01T17:20:18.064Z,99026.17
2018-09-01T17:22:30.369Z,99033.41
2018-09-01T17:24:42.681Z,99028.40
2018-09-01T17:26:54.963Z,99029.91
2018-09-01T17:29:07.291Z,99029.57
2018-09-01T17:31:19.498Z,99037.38
2018-09-01T17:33:32.159Z,99037.27
2018-09-01T17:35:44.374Z,99043.30
2018-09-01T17:37:56.598Z,99040.21
2018-09-01T17:40:08.891Z,99038.20
2018-09-01T17:42:21.188Z,99037.16
2018-09-01T17:44:33.414Z,99041.72
2018-09-01T17:46:45.695Z,99041.52
2018-09-01T17:48:57.990Z,99037.83
2018-09-01T17:51:10.201Z,99044.54
2018-09-01T17:53:22.451Z,99043.02
2018-09-01T17:55:34.738Z,99050.08
2018-09-01T17:57:46.938Z,99045.78
2018-09-01T17:59:59.176Z,99043.41
2018-09-01T18:02:12.464Z,99046.04
2018-09-01T18:04:24.766Z,99048.34
2018-09-01T18:06:36.985Z,99054.70
2018-09-01T18:08:49.249Z,99048.94
2018-09-01T18:11:01.594Z,99055.91
2018-09-01T18:13:13.814Z,99063.73
2018-09-01T18:15:26.082Z,99055.45
2018-09-01T18:17:38.418Z,99063.36
2018-09-01T18:19:50.654Z,99060.05
2018-09-01T18:22:02.947Z,99060.05
2018-09-01T18:24:15.187Z,99066.38
2018-09-01T18:26:27.490Z,99065.89
2018-09-01T18:28:39.771Z,99062.27
2018-09-01T18:30:51.971Z,99061.44
2018-09-01T18:33:04.204Z,99063.02
2018-09-01T18:35:16.474Z,99066.30
2018-09-01T18:37:28.683Z,99069.76
2018-09-01T18:39:41.026Z,99070.25
2018-09-01T18:41:53.313Z,99063.42
2018-09-01T18:44:05.647Z,99071.83
2018-09-01T18:46:17.903Z,99076.52
2018-09-01T18:48:30.125Z,99076.78
2018-09-01T18:50:42.507Z,99079.77
2018-09-01T18:52:54.755Z,99079.42
2018-09-01T18:55:07.045Z,99081.14
2018-09-01T18:57:19.310Z,99075.55
2018-09-01T18:59:31.514Z,99082.97
2018-09-01T19:01:43.785Z,99080.81
2018-09-01T19:03:56.055Z,99076.27
2018-09-01T19:06:08.246Z,99079.16
2018-09-01T19:08:20.480Z,99082.88
2018-09-01T19:10:32.719Z,99087.55
2018-09-01T19:12:45.317Z,99093.28
2018-09-01T19:14:57.584Z,99098.84
2018-09-01T19:17:09.847Z,99102.41
2018-09-01T19:19:22.143Z,99102.58
2018-09-01T19:21:34.350Z,99104.43
2018-09-01T19:23:46.551Z,99102.05
2018-09-01T19:25:58.746Z,99107.08
2018-09-01T19:28:11.015Z,99110.60
2018-09-01T19:30:23.973Z,99115.68
2018-09-01T19:32:36.697Z,99109.83
2018-09-01T19:34:48.972Z,99108.66
2018-09-01T19:37:01.255Z,99111.16
2018-09-01T19:39:13.507Z,99110.19
2018-09-01T19:41:25.777Z,99106.00
2018-09-01T19:43:38.056Z,99113.91
2018-09-01T19:45:50.394Z,99116.54
2018-09-01T19:48:02.726Z,99114.39
2018-09-01T19:50:15.098Z,99109.64
2018-09-01T19:52:27.417Z,99107.73
2018-09-01T19:54:39.813Z,99111.09
2018-09-01T19:56:52.116Z,99101.75
2018-09-01T19:59:04.646Z,99108.22
2018-09-01T20:01:17.106Z,99108.59
2018-09-01T20:03:29.427Z,99111.13
2018-09-01T20:05:41.818Z,99110.05
2018-09-01T20:07:54.103Z,99112.34
2018-09-01T20:10:06.364Z,99115.56
2018-09-01T20:12:18.737Z,99109.59
2018-09-01T20:14:31.161Z,99109.72
2018-09-01T20:16:43.448Z,99109.95
2018-09-01T20:18:55.683Z,99107.21
2018-09-01T20:21:07.919Z,99106.14
2018-09-01T20:23:20.147Z,99106.99
2018-09-01T20:25:32.412Z,99106.74
2018-09-01T20:27:44.666Z,99111.88
2018-09-01T20:29:56.886Z,99112.48
2018-09-01T20:32:09.140Z,99104.00
2018-09-01T20:34:21.425Z,99104.70
2018-09-01T20:36:33.662Z,99104.25
2018-09-01T20:38:45.903Z,99111.41
2018-09-01T20:40:58.142Z,99115.23
2018-09-01T20:43:10.411Z,99116.17
2018-09-01T20:45:22.687Z,99104.70
2018-09-01T20:47:34.991Z,99115.36
2018-09-01T20:49:47.251Z,99111.77
2018-09-01T20:51:59.892Z,99113.03
2018-09-01T20:54:11.984Z,99111.97
2018-09-01T20:56:24.300Z,99109.81
2018-09-01T20:58:36.556Z,99107.78
2018-09-01T21:00:48.837Z,99110.90
2018-09-01T21:03:01.162Z,99109.09
2018-09-01T21:05:13.446Z,99113.53
2018-09-01T21:07:25.768Z,99112.91
2018-09-01T21:09:38.055Z,99113.30
2018-09-01T21:11:50.350Z,99116.03
2018-09-01T21:14:02.710Z,99116.51
2018-09-01T21:16:14.980Z,99113.77
2018-09-01T21:18:27.291Z,99109.45
2018-09-01T21:20:39.507Z,99111.47
2018-09-01T21:22:51.750Z,99107.28
2018-09-01T21:25:04.100Z,99110.89
2018-09-01T21:27:16.346Z,99111.24
2018-09-01T21:29:28.611Z,99109.67
2018-09-01T21:31:40.962Z,99113.73
2018-09-01T21:33:53.223Z,99115.50
2018-09-01T21:36:05.434Z,99114.06
2018-09-01T21:38:17.702Z,99116.70
2018-09-01T21:40:30.007Z,99116.70
2018-09-01T21:42:42.235Z,99119.70
2018-09-01T21:44:54.456Z,99118.61
2018-09-01T21:47:06.707Z,99116.22
2018-09-01T21:49:18.977Z,99111.82
2018-09-01T21:51:31.201Z,99118.13
2018-09-01T21:53:43.454Z,99115.98
2018-09-01T21:55:55.772Z,99114.91
2018-09-01T21:58:08.008Z,99117.31
2018-09-01T22:00:20.351Z,99117.31
2018-09-01T22:02:32.626Z,99117.54
2018-09-01T22:04:50.675Z,99119.43
2018-09-01T22:07:02.947Z,99113.82
2018-09-01T22:09:15.238Z,99123.75
2018-09-01T22:11:27.482Z,99119.45
2018-09-01T22:13:39.711Z,99122.78
2018-09-01T22:15:51.958Z,99112.05
2018-09-01T22:18:04.278Z,99118.72
2018-09-01T22:20:16.541Z,99114.68
2018-09-01T22:22:28.789Z,99115.99
2018-09-01T22:24:41.006Z,99117.66
2018-09-01T22:26:53.286Z,99109.04
2018-09-01T22:29:05.560Z,99110.97
2018-09-01T22:31:17.880Z,99110.61
2018-09-01T22:33:30.103Z,99107.48
2018-09-01T22:35:42.378Z,99106.39
2018-09-01T22:37:54.633Z,99104.73
2018-09-01T22:40:07.099Z,99106.62
2018-09-01T22:42:19.334Z,99106.27
2018-09-01T22:44:31.580Z,99102.23
2018-09-01T22:46:43.839Z,99098.38
2018-09-01T22:48:56.106Z,99098.38
2018-09-01T22:51:08.308Z,99100.53
2018-09-01T22:53:20.518Z,99099.47
2018-09-01T22:55:32.719Z,99096.84
2018-09-01T22:57:44.903Z,99094.34
2018-09-01T22:59:57.094Z,99085.38
2018-09-01T23:02:09.312Z,99090.72
2018-09-01T23:04:21.579Z,99084.16
2018-09-01T23:06:34.095Z,99077.23
2018-09-01T23:08:46.459Z,99076.75
2018-09-01T23:10:58.680Z,99080.09
2018-09-01T23:13:10.944Z,99080.70
2018-09-01T23:15:23.204Z,99073.75
2018-09-01T23:17:35.459Z,99075.77
2018-09-01T23:19:47.710Z,99071.09
2018-09-01T23:21:59.924Z,99065.59
2018-09-01T23:24:12.181Z,99072.02
2018-09-01T23:26:24.422Z,99070.61
2018-09-01T23:28:36.668Z,99076.91
2018-09-01T23:30:48.868Z,99073.72
2018-09-01T23:33:01.074Z,99064.88
2018-09-01T23:35:13.322Z,99069.77
2018-09-01T23:37:25.551Z,99071.88
2018-09-01T23:39:37.746Z,99066.37
2018-09-01T23:41:49.994Z,99061.38
2018-09-01T23:44:02.204Z,99064.84
2018-09-01T23:46:14.414Z,99064.00
2018-09-01T23:48:26.663Z,99064.84
2018-09-01T23:50:42.613Z,99067.29
2018-09-01T23:52:54.912Z,99060.80
2018-09-01T23:55:07.199Z,99063.04
2018-09-01T23:57:19.422Z,99060.10
2018-09-01T23:59:31.680Z,99056.78
